Time;durP1;ratioP1;P1;durP2;ratioP2;P2;SDS_P1;SDS_P2;PMS_P1;PMS_P2;Temp;Humidity;BMP_temperature;BMP_pressure;BME280_temperature;BME280_humidity;BME280_pressure;Samples;Min_cycle;Max_cycle;Signal;HPM_P1;HPM_P2
2022/10/03 00:00:13;;;;;;;16.67;4.72;;;12.70;99.90;;;;;;5009984;28;20053;-78
2022/10/03 00:03:06;;;;;;;18.23;5.00;;;12.70;99.90;;;;;;5009273;28;20042;-77
2022/10/03 00:05:43;;;;;;;18.70;5.05;;;12.70;99.90;;;;;;5010794;28;20041;-78
2022/10/03 00:08:17;;;;;;;15.60;4.47;;;12.70;99.90;;;;;;5018535;28;20052;-78
2022/10/03 00:10:54;;;;;;;11.40;4.13;;;12.60;99.90;;;;;;5009259;28;20048;-78
2022/10/03 00:13:27;;;;;;;14.13;4.45;;;12.60;99.90;;;;;;5009285;28;20053;-77
2022/10/03 00:16:04;;;;;;;16.55;4.57;;;12.60;99.90;;;;;;5012656;28;20618;-77
2022/10/03 00:18:39;;;;;;;9.93;4.50;;;12.60;99.90;;;;;;5017244;28;20060;-77
2022/10/03 00:21:17;;;;;;;14.23;4.45;;;12.60;99.90;;;;;;5009327;28;20042;-78
2022/10/03 00:23:51;;;;;;;14.00;5.10;;;12.60;99.90;;;;;;5019119;28;20124;-78
2022/10/03 00:26:27;;;;;;;11.52;4.40;;;12.60;99.90;;;;;;5009032;28;20042;-77
2022/10/03 00:29:08;;;;;;;15.85;5.10;;;12.60;99.90;;;;;;5009348;28;20073;-77
2022/10/03 00:31:41;;;;;;;20.52;5.10;;;12.60;99.90;;;;;;5010731;28;20045;-77
2022/10/03 00:34:19;;;;;;;15.57;4.30;;;12.50;99.90;;;;;;5017116;28;20701;-77
2022/10/03 00:36:52;;;;;;;14.30;4.80;;;12.50;99.90;;;;;;5009205;28;20046;-77
2022/10/03 00:39:47;;;;;;;16.05;5.18;;;12.50;99.90;;;;;;5012901;28;20061;-78
2022/10/03 00:42:59;;;;;;;18.05;4.53;;;12.50;99.90;;;;;;5014468;28;20058;-78
2022/10/03 00:46:14;;;;;;;17.67;4.40;;;12.50;99.90;;;;;;4974792;28;20042;-77
2022/10/03 00:49:30;;;;;;;20.55;5.32;;;12.50;99.90;;;;;;4955014;28;20388;-77
2022/10/03 00:52:11;;;;;;;14.07;4.22;;;12.50;99.90;;;;;;5013387;28;20064;-77
2022/10/03 00:54:51;;;;;;;12.98;4.35;;;12.50;99.90;;;;;;5018049;28;20506;-77
2022/10/03 00:57:55;;;;;;;11.68;4.47;;;12.50;99.90;;;;;;4994805;28;20111;-77
2022/10/03 01:00:24;;;;;;;16.00;4.50;;;12.50;99.90;;;;;;5000509;28;20061;-77
2022/10/03 01:03:14;;;;;;;21.92;4.85;;;12.40;99.90;;;;;;5021167;28;20041;-77
2022/10/03 01:05:58;;;;;;;18.90;5.03;;;12.40;99.90;;;;;;4994523;28;20411;-77
2022/10/03 01:08:43;;;;;;;14.40;4.53;;;12.40;99.90;;;;;;5012595;28;20584;-77
2022/10/03 01:11:21;;;;;;;12.63;5.00;;;12.40;99.90;;;;;;5012465;28;20045;-77
2022/10/03 01:13:56;;;;;;;17.58;4.57;;;12.40;99.90;;;;;;5020326;28;20438;-78
2022/10/03 01:16:36;;;;;;;18.15;5.75;;;12.40;99.90;;;;;;5027996;28;20053;-77
2022/10/03 01:19:12;;;;;;;16.88;5.05;;;12.40;99.90;;;;;;5032090;28;20037;-78
2022/10/03 01:21:45;;;;;;;21.50;5.82;;;12.40;99.90;;;;;;5025145;28;20426;-78
2022/10/03 01:24:40;;;;;;;19.30;5.00;;;12.40;99.90;;;;;;5020160;28;20063;-77
2022/10/03 01:27:08;;;;;;;15.75;4.55;;;12.40;99.90;;;;;;5012121;28;20053;-78
2022/10/03 01:32:33;;;;;;;17.58;5.18;;;12.40;99.90;;;;;;5019444;28;20132;-78
2022/10/03 01:35:09;;;;;;;18.95;5.07;;;12.40;99.90;;;;;;5028619;28;20064;-78
2022/10/03 01:37:42;;;;;;;18.75;5.07;;;12.40;99.90;;;;;;5031783;28;20045;-77
2022/10/03 01:40:16;;;;;;;23.83;5.32;;;12.40;99.90;;;;;;5031580;28;20046;-77
2022/10/03 01:42:52;;;;;;;15.77;5.10;;;12.40;99.90;;;;;;5022258;28;20041;-77
2022/10/03 01:45:28;;;;;;;16.52;4.90;;;12.50;99.90;;;;;;5011499;28;20499;-78
2022/10/03 01:48:00;;;;;;;23.48;4.82;;;12.40;99.90;;;;;;5011706;28;20136;-77
2022/10/03 01:50:33;;;;;;;17.50;5.20;;;12.40;99.90;;;;;;5011731;28;20773;-77
2022/10/03 01:53:05;;;;;;;19.17;4.90;;;12.40;99.90;;;;;;5020258;28;20058;-78
2022/10/03 01:55:40;;;;;;;21.90;5.30;;;12.40;99.90;;;;;;5017720;28;20056;-78
2022/10/03 01:58:11;;;;;;;18.80;5.03;;;12.40;99.90;;;;;;5011351;28;20124;-78
2022/10/03 02:00:45;;;;;;;12.70;5.07;;;12.40;99.90;;;;;;5011542;28;20054;-78
2022/10/03 02:03:17;;;;;;;20.40;5.28;;;12.40;99.90;;;;;;5021222;28;20053;-77
2022/10/03 02:05:54;;;;;;;14.77;4.63;;;12.40;99.90;;;;;;5025715;28;20506;-76
2022/10/03 02:08:27;;;;;;;14.38;4.88;;;12.40;99.90;;;;;;5019343;28;20139;-77
2022/10/03 02:10:58;;;;;;;21.05;5.47;;;12.40;99.90;;;;;;5019882;28;20057;-77
2022/10/03 02:13:29;;;;;;;14.60;5.28;;;12.30;99.90;;;;;;5018807;28;20049;-77
2022/10/03 02:16:11;;;;;;;15.32;5.75;;;12.30;99.90;;;;;;5025609;28;20149;-77
2022/10/03 02:18:44;;;;;;;13.43;4.65;;;12.40;99.90;;;;;;5024350;28;20049;-77
2022/10/03 02:21:15;;;;;;;12.38;4.60;;;12.40;99.90;;;;;;5010980;28;20130;-77
2022/10/03 02:23:47;;;;;;;18.77;5.90;;;12.40;99.90;;;;;;5016446;28;20049;-77
2022/10/03 02:26:48;;;;;;;13.85;5.15;;;12.40;99.90;;;;;;5027144;28;20113;-77
2022/10/03 02:29:33;;;;;;;14.45;5.10;;;12.40;99.90;;;;;;4968128;28;20069;-77
2022/10/03 02:32:36;;;;;;;16.75;5.03;;;12.40;99.90;;;;;;5011607;28;20114;-77
2022/10/03 02:35:51;;;;;;;14.68;5.00;;;12.40;99.90;;;;;;4947555;29;20073;-77
2022/10/03 02:38:44;;;;;;;17.17;5.30;;;12.40;99.90;;;;;;4958018;28;20058;-77
2022/10/03 02:41:50;;;;;;;17.42;5.47;;;12.40;99.90;;;;;;4949802;29;20130;-77
2022/10/03 02:44:38;;;;;;;18.10;5.65;;;12.40;99.90;;;;;;5017216;28;20108;-77
2022/10/03 02:47:32;;;;;;;18.85;5.05;;;12.40;99.90;;;;;;5008846;28;20049;-76
2022/10/03 02:50:29;;;;;;;18.52;6.45;;;12.40;99.90;;;;;;4992773;28;20057;-77
2022/10/03 02:53:23;;;;;;;18.15;6.05;;;12.40;99.90;;;;;;4965217;28;20081;-77
2022/10/03 02:56:29;;;;;;;20.17;6.70;;;12.40;99.90;;;;;;5025251;28;20037;-77
2022/10/03 02:59:15;;;;;;;15.40;5.68;;;12.40;99.90;;;;;;4986676;28;20061;-77
2022/10/03 03:01:53;;;;;;;20.17;5.88;;;12.30;99.90;;;;;;5017182;28;20042;-77
2022/10/03 03:04:57;;;;;;;16.98;5.80;;;12.40;99.90;;;;;;5019357;28;20044;-77
2022/10/03 03:07:35;;;;;;;20.05;6.15;;;12.30;99.90;;;;;;5014070;28;20054;-77
2022/10/03 03:10:29;;;;;;;17.58;5.63;;;12.30;99.90;;;;;;5016003;28;20041;-77
2022/10/03 03:13:27;;;;;;;13.52;6.15;;;12.30;99.90;;;;;;5013231;28;20050;-77
2022/10/03 03:16:37;;;;;;;17.02;6.20;;;12.30;99.90;;;;;;5000023;28;20422;-77
2022/10/03 03:19:24;;;;;;;22.67;6.05;;;12.30;99.90;;;;;;4992328;28;20483;-77
2022/10/03 03:21:55;;;;;;;25.45;6.45;;;12.20;99.90;;;;;;5015043;28;20042;-77
2022/10/03 03:24:51;;;;;;;12.48;6.32;;;12.20;99.90;;;;;;5016649;28;20057;-77
2022/10/03 03:27:26;;;;;;;15.80;5.95;;;12.20;99.90;;;;;;4984577;28;20053;-77
2022/10/03 03:29:57;;;;;;;14.88;5.97;;;12.20;99.90;;;;;;5018426;28;20045;-77
2022/10/03 03:32:33;;;;;;;20.50;6.35;;;12.20;99.90;;;;;;5012915;28;20162;-77
2022/10/03 03:35:09;;;;;;;19.38;6.55;;;12.10;99.90;;;;;;5025280;28;20063;-77
2022/10/03 03:37:43;;;;;;;23.45;6.68;;;12.20;99.90;;;;;;5015574;28;20049;-77
2022/10/03 03:40:28;;;;;;;11.90;5.75;;;12.10;99.90;;;;;;5009571;28;20454;-77
2022/10/03 03:43:17;;;;;;;16.40;6.10;;;12.10;99.90;;;;;;5009540;28;20093;-77
2022/10/03 03:45:53;;;;;;;15.60;6.20;;;12.10;99.90;;;;;;5023928;28;20052;-77
2022/10/03 03:48:46;;;;;;;20.60;6.38;;;12.10;99.90;;;;;;5017640;28;20057;-77
2022/10/03 03:51:22;;;;;;;17.38;5.85;;;12.10;99.90;;;;;;5009469;28;20045;-77
2022/10/03 03:54:18;;;;;;;15.90;5.70;;;12.00;99.90;;;;;;5012086;28;20054;-77
2022/10/03 03:57:21;;;;;;;24.73;6.70;;;12.10;99.90;;;;;;5023522;28;20041;-77
2022/10/03 04:00:12;;;;;;;13.57;5.97;;;12.00;99.90;;;;;;5024206;28;20061;-77
2022/10/03 04:03:00;;;;;;;17.30;6.28;;;12.00;99.90;;;;;;5029109;28;20048;-77
2022/10/03 04:05:35;;;;;;;14.45;6.43;;;12.00;99.90;;;;;;5023735;28;20044;-77
2022/10/03 04:08:27;;;;;;;14.85;6.43;;;12.00;99.90;;;;;;5017751;28;20765;-77
2022/10/03 04:11:03;;;;;;;15.25;5.80;;;12.00;99.90;;;;;;5007298;28;20085;-77
2022/10/03 04:13:46;;;;;;;17.77;6.47;;;12.00;99.90;;;;;;5007017;28;20426;-77
2022/10/03 04:19:45;;;;;;;16.85;7.05;;;12.00;99.90;;;;;;5003428;28;20072;-77
2022/10/03 04:22:29;;;;;;;18.30;6.88;;;12.00;99.90;;;;;;4992363;28;20477;-77
2022/10/03 04:25:19;;;;;;;24.75;8.18;;;12.10;99.90;;;;;;5000055;28;20053;-77
2022/10/03 04:27:59;;;;;;;19.90;8.32;;;12.10;99.90;;;;;;5021750;28;20041;-77
2022/10/03 04:30:31;;;;;;;19.30;7.47;;;12.10;99.90;;;;;;5010656;28;20052;-77
2022/10/03 04:33:08;;;;;;;25.75;8.93;;;12.10;99.90;;;;;;5016942;28;20046;-77
2022/10/03 04:35:53;;;;;;;19.90;8.45;;;12.10;99.90;;;;;;5016831;28;20572;-77
2022/10/03 04:38:38;;;;;;;22.05;9.38;;;12.20;99.90;;;;;;5009078;28;20533;-77
2022/10/03 04:41:10;;;;;;;18.88;8.20;;;12.20;99.90;;;;;;5009114;28;20054;-77
2022/10/03 04:43:42;;;;;;;23.25;7.90;;;12.20;99.90;;;;;;5017503;28;20441;-77
2022/10/03 04:46:22;;;;;;;24.63;8.40;;;12.20;99.90;;;;;;5020075;28;20810;-77
2022/10/03 04:48:57;;;;;;;23.08;8.68;;;12.20;99.90;;;;;;5020255;28;20046;-77
2022/10/03 04:51:42;;;;;;;23.35;8.48;;;12.30;99.90;;;;;;5019442;28;20038;-77
2022/10/03 04:54:16;;;;;;;22.63;7.70;;;12.20;99.90;;;;;;5016417;28;20045;-77
2022/10/03 04:56:51;;;;;;;20.05;8.18;;;12.20;99.90;;;;;;5016861;28;20045;-77
2022/10/03 04:59:41;;;;;;;21.27;8.85;;;12.30;99.90;;;;;;5008695;28;20408;-77
2022/10/03 05:02:17;;;;;;;20.95;8.52;;;12.30;99.90;;;;;;5018551;28;20074;-77
2022/10/03 05:04:59;;;;;;;20.70;8.27;;;12.30;99.90;;;;;;5028300;28;20125;-77
2022/10/03 05:07:32;;;;;;;28.42;8.75;;;12.30;99.90;;;;;;5004256;28;20046;-77
2022/10/03 05:10:03;;;;;;;19.60;8.50;;;12.30;99.90;;;;;;5024074;28;20103;-77
2022/10/03 05:12:34;;;;;;;17.17;7.97;;;12.30;99.90;;;;;;5016603;28;20046;-77
2022/10/03 05:15:13;;;;;;;;;;;12.30;99.90;;;;;;5023359;28;20050;-77
2022/10/03 05:17:47;;;;;;;23.02;8.95;;;12.30;99.90;;;;;;5001796;28;20055;-77
2022/10/03 05:20:33;;;;;;;17.55;7.97;;;12.40;99.90;;;;;;5014884;28;20052;-77
2022/10/03 05:23:11;;;;;;;24.90;9.20;;;12.40;99.90;;;;;;5028738;28;20107;-77
2022/10/03 05:25:47;;;;;;;21.35;9.50;;;12.40;99.90;;;;;;5031644;28;20045;-77
2022/10/03 05:28:21;;;;;;;20.27;8.68;;;12.40;99.90;;;;;;5031389;28;20056;-77
2022/10/03 05:30:53;;;;;;;22.52;8.85;;;12.40;99.90;;;;;;5026552;28;20041;-77
2022/10/03 05:33:30;;;;;;;23.20;8.45;;;12.40;99.90;;;;;;5019995;28;20052;-77
2022/10/03 05:36:10;;;;;;;24.17;8.10;;;12.40;99.90;;;;;;5011556;28;20085;-77
2022/10/03 05:39:17;;;;;;;26.70;8.90;;;12.40;99.90;;;;;;5012540;28;20149;-78
2022/10/03 05:41:53;;;;;;;21.63;7.90;;;12.40;99.90;;;;;;5027384;28;20037;-77
2022/10/03 05:44:27;;;;;;;19.95;7.85;;;12.40;99.90;;;;;;5019171;28;20041;-77
2022/10/03 05:46:58;;;;;;;23.08;8.10;;;12.40;99.90;;;;;;5015225;28;20077;-77
2022/10/03 05:49:52;;;;;;;20.15;7.97;;;12.40;99.90;;;;;;5017745;28;20119;-77
2022/10/03 05:52:33;;;;;;;16.58;8.65;;;12.40;99.90;;;;;;5017459;28;20042;-77
2022/10/03 05:55:13;;;;;;;16.70;8.40;;;12.40;99.90;;;;;;5021881;28;20045;-77
2022/10/03 05:58:13;;;;;;;25.63;8.98;;;12.40;99.90;;;;;;5024883;28;20052;-77
2022/10/03 06:01:04;;;;;;;17.25;8.30;;;12.40;99.90;;;;;;5018633;28;20417;-77
2022/10/03 06:03:57;;;;;;;15.83;7.73;;;12.40;99.90;;;;;;5026183;28;20596;-77
2022/10/03 06:06:33;;;;;;;20.83;9.48;;;12.40;99.90;;;;;;5017602;28;20108;-77
2022/10/03 06:09:20;;;;;;;26.17;9.25;;;12.40;99.90;;;;;;5001643;28;20061;-77
2022/10/03 06:12:13;;;;;;;21.73;8.85;;;12.50;99.90;;;;;;5019966;28;20041;-77
2022/10/03 06:15:06;;;;;;;27.50;9.32;;;12.50;99.90;;;;;;5025250;28;20037;-77
2022/10/03 06:17:54;;;;;;;33.30;9.65;;;12.50;99.90;;;;;;5021604;28;20044;-77
2022/10/03 06:20:49;;;;;;;19.20;8.38;;;12.60;99.90;;;;;;5020859;28;20045;-77
2022/10/03 06:23:33;;;;;;;23.50;8.75;;;12.70;99.90;;;;;;5019523;28;20506;-77
2022/10/03 06:26:20;;;;;;;29.52;9.70;;;12.60;99.90;;;;;;5010761;28;20049;-77
2022/10/03 06:29:27;;;;;;;21.23;9.25;;;12.60;99.90;;;;;;5011008;28;20064;-77
2022/10/03 06:32:18;;;;;;;22.90;8.60;;;12.70;99.90;;;;;;5028979;28;20053;-77
2022/10/03 06:35:11;;;;;;;22.20;9.02;;;12.70;99.90;;;;;;5029293;28;20052;-77
2022/10/03 06:38:02;;;;;;;28.95;9.73;;;12.70;99.90;;;;;;5029932;28;20041;-77
2022/10/03 06:40:38;;;;;;;;;;;12.70;99.90;;;;;;5025352;28;20042;-77
2022/10/03 06:43:28;;;;;;;24.63;9.38;;;12.80;99.90;;;;;;5024199;28;19921;-77
2022/10/03 06:46:34;;;;;;;28.10;9.15;;;12.80;99.90;;;;;;5013599;28;20515;-77
2022/10/03 06:49:35;;;;;;;20.48;9.20;;;12.80;99.90;;;;;;5013066;28;20116;-77
2022/10/03 06:52:25;;;;;;;23.08;9.30;;;12.80;99.90;;;;;;5010307;28;20065;-77
2022/10/03 06:55:31;;;;;;;21.60;8.80;;;12.80;99.90;;;;;;5013705;28;20037;-77
2022/10/03 06:58:22;;;;;;;25.05;9.82;;;12.90;99.90;;;;;;4957093;28;20055;-77
2022/10/03 07:00:58;;;;;;;21.63;10.25;;;12.90;99.90;;;;;;4937490;28;20070;-77
2022/10/03 07:04:00;;;;;;;24.17;9.70;;;12.90;99.90;;;;;;5007686;28;20085;-77
2022/10/03 07:06:50;;;;;;;22.48;9.27;;;12.90;99.90;;;;;;5014760;28;20057;-77
2022/10/03 07:09:45;;;;;;;20.20;8.57;;;12.90;99.90;;;;;;5011502;28;20506;-77
2022/10/03 07:12:43;;;;;;;17.75;8.15;;;13.00;99.90;;;;;;5009387;28;20491;-77
2022/10/03 07:15:25;;;;;;;22.10;8.75;;;13.00;99.90;;;;;;5026444;28;20057;-77
2022/10/03 07:18:21;;;;;;;22.17;9.13;;;13.00;99.90;;;;;;5026672;28;20137;-77
2022/10/03 07:21:18;;;;;;;20.35;8.73;;;13.00;99.90;;;;;;5029813;28;20407;-77
2022/10/03 07:24:21;;;;;;;20.80;8.30;;;13.00;99.90;;;;;;5023457;28;20055;-77
2022/10/03 07:27:10;;;;;;;18.42;8.32;;;13.00;99.90;;;;;;4995088;28;20045;-77
2022/10/03 07:30:20;;;;;;;18.00;8.25;;;13.10;99.90;;;;;;5011671;28;20132;-77
2022/10/03 07:33:22;;;;;;;20.00;8.10;;;13.10;99.90;;;;;;5009250;28;20055;-77
2022/10/03 07:39:35;;;;;;;23.55;9.63;;;13.30;99.90;;;;;;5011431;28;20046;-78
2022/10/03 07:42:42;;;;;;;22.15;9.15;;;13.30;99.90;;;;;;5009763;28;20054;-77
2022/10/03 07:49:30;;;;;;;19.63;8.10;;;13.30;99.90;;;;;;4926896;28;20456;-77
2022/10/03 07:52:22;;;;;;;20.83;9.23;;;13.40;99.90;;;;;;5015134;28;20052;-77
2022/10/03 07:55:14;;;;;;;29.55;10.65;;;13.40;99.90;;;;;;5022308;28;20053;-78
2022/10/03 07:58:24;;;;;;;23.50;9.15;;;13.50;99.90;;;;;;4997868;28;20471;-77
2022/10/03 08:01:11;;;;;;;20.92;9.50;;;13.60;99.90;;;;;;4980457;28;20057;-77
2022/10/03 08:04:22;;;;;;;26.17;9.77;;;13.60;99.90;;;;;;5009280;28;20329;-77
2022/10/03 08:06:53;;;;;;;25.35;8.35;;;13.60;99.90;;;;;;4981154;28;20412;-77
2022/10/03 08:09:42;;;;;;;;;;;13.70;99.90;;;;;;5020716;28;20545;-77
2022/10/03 08:12:44;;;;;;;24.42;9.27;;;13.70;99.90;;;;;;5018296;28;19925;-77
2022/10/03 08:15:21;;;;;;;20.20;9.25;;;13.80;99.90;;;;;;5010057;28;20107;-77
2022/10/03 08:18:22;;;;;;;22.00;9.75;;;13.90;99.90;;;;;;5015466;28;20041;-77
2022/10/03 08:20:54;;;;;;;24.95;9.68;;;13.90;99.90;;;;;;5017301;28;20046;-77
2022/10/03 08:24:04;;;;;;;23.00;8.68;;;13.90;99.90;;;;;;5013069;28;20104;-77
2022/10/03 08:26:42;;;;;;;22.23;8.32;;;14.00;99.90;;;;;;5020347;28;20498;-77
2022/10/03 08:29:41;;;;;;;18.65;7.43;;;14.00;99.90;;;;;;5026485;28;20489;-77
2022/10/03 08:32:45;;;;;;;22.27;8.10;;;14.10;99.90;;;;;;4967769;28;20536;-78
2022/10/03 08:35:25;;;;;;;24.77;7.70;;;14.20;99.90;;;;;;5008959;28;20134;-77
2022/10/03 08:38:30;;;;;;;17.58;7.05;;;14.20;99.90;;;;;;5012489;28;20049;-77
2022/10/03 08:41:29;;;;;;;17.10;6.50;;;14.30;99.90;;;;;;5024270;28;20124;-77
2022/10/03 08:44:28;;;;;;;22.58;6.45;;;14.30;99.90;;;;;;5011764;28;20056;-77
2022/10/03 08:47:37;;;;;;;16.52;5.90;;;14.40;99.90;;;;;;5004437;28;20064;-77
2022/10/03 08:50:34;;;;;;;19.13;6.30;;;14.40;99.90;;;;;;5017559;28;20049;-77
2022/10/03 08:53:27;;;;;;;18.83;6.25;;;14.70;99.90;;;;;;5014623;28;20073;-77
2022/10/03 08:55:59;;;;;;;19.08;5.95;;;14.50;99.90;;;;;;5015686;28;20049;-77
2022/10/03 08:58:54;;;;;;;16.95;5.30;;;14.60;99.90;;;;;;5021102;28;20045;-77
2022/10/03 09:01:44;;;;;;;22.55;5.90;;;14.60;99.90;;;;;;5017849;28;20056;-77
2022/10/03 09:04:49;;;;;;;16.58;4.90;;;14.70;99.90;;;;;;5016738;28;20041;-77
2022/10/03 09:07:27;;;;;;;20.75;5.00;;;14.70;99.90;;;;;;4992327;28;20058;-77
2022/10/03 09:10:29;;;;;;;16.92;5.30;;;14.70;99.90;;;;;;5022016;28;20049;-77
2022/10/03 09:13:23;;;;;;;20.55;5.60;;;14.80;99.90;;;;;;5020590;28;20076;-77
2022/10/03 09:16:26;;;;;;;21.10;5.25;;;14.80;99.90;;;;;;5016286;28;20057;-77
2022/10/03 09:19:02;;;;;;;18.30;5.18;;;14.80;99.90;;;;;;5016113;28;20048;-77
2022/10/03 09:22:03;;;;;;;13.77;4.65;;;14.90;99.90;;;;;;5023701;28;20037;-77
2022/10/03 09:25:04;;;;;;;13.27;4.43;;;14.90;99.90;;;;;;5024084;28;20041;-77
2022/10/03 09:27:42;;;;;;;16.23;4.68;;;15.00;99.90;;;;;;4982184;28;20054;-77
2022/10/03 09:30:24;;;;;;;11.48;4.00;;;14.90;99.90;;;;;;5026406;28;20045;-78
2022/10/03 09:33:22;;;;;;;22.02;4.65;;;15.00;99.90;;;;;;5024430;28;20045;-77
2022/10/03 09:36:31;;;;;;;16.70;4.85;;;15.00;99.90;;;;;;5011903;28;20049;-77
2022/10/03 09:39:32;;;;;;;14.00;4.20;;;15.00;99.90;;;;;;5018783;28;20067;-77
2022/10/03 09:42:35;;;;;;;18.25;4.65;;;15.10;99.90;;;;;;5016633;28;20049;-77
2022/10/03 09:45:25;;;;;;;11.45;3.83;;;15.10;99.90;;;;;;5011661;28;20053;-77
2022/10/03 09:48:24;;;;;;;16.77;4.72;;;15.10;99.90;;;;;;5012750;28;20050;-76
2022/10/03 09:51:21;;;;;;;16.92;4.47;;;15.20;99.90;;;;;;5023926;28;20045;-76
2022/10/03 09:54:42;;;;;;;21.20;4.57;;;15.20;99.90;;;;;;5025874;28;20095;-76
2022/10/03 09:57:31;;;;;;;15.98;4.05;;;15.20;99.90;;;;;;5023378;28;20074;-76
2022/10/03 10:00:09;;;;;;;14.10;3.08;;;15.20;99.90;;;;;;5011693;28;20045;-76
2022/10/03 10:03:13;;;;;;;18.23;4.03;;;15.20;99.90;;;;;;5027391;22;20474;-77
2022/10/03 10:05:55;;;;;;;12.10;3.28;;;15.30;99.90;;;;;;5031476;28;20041;-76
2022/10/03 10:09:13;;;;;;;17.13;4.18;;;15.30;99.90;;;;;;5021461;28;20050;-77
2022/10/03 10:12:15;;;;;;;20.27;4.40;;;15.30;99.90;;;;;;5036191;28;20043;-78
2022/10/03 10:15:21;;;;;;;16.05;3.30;;;15.40;99.90;;;;;;5030647;28;20048;-76
2022/10/03 10:18:09;;;;;;;11.75;2.40;;;15.40;99.90;;;;;;5019813;28;20649;-76
2022/10/03 10:21:03;;;;;;;13.73;2.47;;;15.40;99.90;;;;;;5035045;28;20049;-77
2022/10/03 10:23:42;;;;;;;14.93;2.35;;;15.40;99.90;;;;;;5041031;28;20112;-77
2022/10/03 10:26:54;;;;;;;20.00;3.10;;;15.40;99.90;;;;;;5030378;28;20422;-76
2022/10/03 10:29:52;;;;;;;9.15;2.17;;;15.40;99.90;;;;;;5030779;28;20045;-77
2022/10/03 10:32:53;;;;;;;13.85;2.50;;;15.40;99.90;;;;;;5040522;28;20072;-77
2022/10/03 10:36:05;;;;;;;10.10;2.08;;;15.50;99.90;;;;;;5030380;28;20421;-77
2022/10/03 10:39:21;;;;;;;15.98;2.80;;;15.50;99.90;;;;;;5030860;28;20573;-77
2022/10/03 10:42:28;;;;;;;13.98;2.58;;;15.50;99.90;;;;;;5038697;28;20037;-77
2022/10/03 10:45:34;;;;;;;12.85;3.95;;;15.50;99.90;;;;;;5037728;28;20041;-76
2022/10/03 10:48:39;;;;;;;11.45;2.88;;;15.60;99.90;;;;;;5030450;28;20667;-76
2022/10/03 10:51:42;;;;;;;13.27;2.80;;;15.60;99.90;;;;;;5030308;28;20045;-77
2022/10/03 10:54:37;;;;;;;9.38;2.53;;;15.60;99.90;;;;;;5030286;28;20037;-77
2022/10/03 10:57:25;;;;;;;10.48;2.10;;;15.60;99.90;;;;;;5039790;28;20041;-77
2022/10/03 11:00:16;;;;;;;15.15;2.45;;;15.60;99.90;;;;;;5032154;28;20045;-77
2022/10/03 11:03:27;;;;;;;8.50;2.03;;;15.70;99.90;;;;;;5036886;28;20052;-77
2022/10/03 11:06:36;;;;;;;14.13;2.37;;;15.70;99.90;;;;;;5041835;28;20049;-77
2022/10/03 11:09:50;;;;;;;10.82;2.20;;;15.70;99.90;;;;;;5039203;28;20418;-77
2022/10/03 11:12:51;;;;;;;6.47;2.05;;;15.70;99.90;;;;;;4992698;28;20062;-77
2022/10/03 11:16:10;;;;;;;11.50;2.95;;;15.70;99.90;;;;;;5043895;28;20125;-77
2022/10/03 11:19:25;;;;;;;12.05;2.88;;;15.80;99.90;;;;;;5037837;28;20042;-77
2022/10/03 11:22:23;;;;;;;13.10;2.50;;;15.80;99.90;;;;;;5048853;28;20052;-77
2022/10/03 11:25:21;;;;;;;11.90;2.65;;;15.80;99.90;;;;;;5049437;28;20045;-77
2022/10/03 11:28:33;;;;;;;11.18;2.38;;;15.90;99.90;;;;;;5040330;28;20045;-77
2022/10/03 11:31:31;;;;;;;11.40;2.55;;;15.90;99.90;;;;;;4982348;28;20053;-77
2022/10/03 11:34:36;;;;;;;13.90;2.67;;;15.90;99.90;;;;;;5029398;28;20468;-77
2022/10/03 11:37:08;;;;;;;10.68;2.92;;;15.90;99.90;;;;;;5039229;28;20098;-77
2022/10/03 11:39:46;;;;;;;12.88;2.40;;;16.00;99.90;;;;;;5042959;28;20053;-77
2022/10/03 11:42:26;;;;;;;10.82;2.80;;;16.00;99.90;;;;;;5049330;28;20132;-77
2022/10/03 11:44:57;;;;;;;13.63;3.28;;;16.00;99.90;;;;;;5048963;28;20049;-77
2022/10/03 11:47:42;;;;;;;12.02;2.80;;;16.10;99.90;;;;;;5040177;28;20051;-77
2022/10/03 11:50:41;;;;;;;8.85;2.80;;;16.10;99.90;;;;;;5049163;28;20077;-78
2022/10/03 11:53:13;;;;;;;12.18;2.67;;;16.10;99.90;;;;;;5037555;28;20044;-77
2022/10/03 11:55:42;;;;;;;10.82;2.67;;;16.20;99.90;;;;;;5039673;28;20045;-77
2022/10/03 11:58:33;;;;;;;9.82;2.55;;;16.20;99.90;;;;;;5047341;28;20471;-77
2022/10/03 12:01:16;;;;;;;13.47;3.47;;;16.20;99.90;;;;;;5040250;28;20049;-78
2022/10/03 12:03:55;;;;;;;13.00;3.28;;;16.20;99.90;;;;;;5048751;28;20188;-77
2022/10/03 12:10:03;;;;;;;9.13;2.40;;;16.30;99.90;;;;;;5044693;28;20037;-77
2022/10/03 12:12:36;;;;;;;14.05;2.80;;;16.30;99.90;;;;;;5093143;22;20355;-77
2022/10/03 12:15:14;;;;;;;8.90;2.17;;;16.30;99.90;;;;;;5010956;28;20045;-76
2022/10/03 12:17:47;;;;;;;16.50;2.95;;;16.30;99.90;;;;;;4991580;28;20050;-77
2022/10/03 12:24:19;;;;;;;7.60;2.07;;;16.30;99.90;;;;;;5016997;28;20072;-77
2022/10/03 12:26:53;;;;;;;9.80;1.73;;;16.30;99.90;;;;;;5008998;28;20310;-77
2022/10/03 12:29:21;;;;;;;14.07;2.10;;;16.30;99.90;;;;;;5021932;28;20565;-77
2022/10/03 12:31:58;;;;;;;11.68;2.53;;;16.30;99.90;;;;;;5008966;28;20052;-77
2022/10/03 12:34:36;;;;;;;10.00;2.33;;;16.40;99.90;;;;;;5011904;28;20038;-77
2022/10/03 12:37:23;;;;;;;9.48;2.35;;;16.40;99.90;;;;;;5020786;28;20056;-77
2022/10/03 12:40:04;;;;;;;7.03;1.70;;;16.40;99.90;;;;;;5006218;28;20107;-77
2022/10/03 12:42:34;;;;;;;10.40;2.03;;;16.40;99.90;;;;;;4993572;28;20046;-77
2022/10/03 12:45:04;;;;;;;7.57;1.95;;;16.40;99.90;;;;;;4993192;28;20080;-77
2022/10/03 12:47:40;;;;;;;8.93;1.75;;;16.40;99.90;;;;;;4995967;28;20053;-77
2022/10/03 12:50:16;;;;;;;8.90;1.70;;;16.40;99.90;;;;;;4998781;28;20096;-77
2022/10/03 12:52:53;;;;;;;9.15;3.10;;;16.40;99.90;;;;;;4997045;28;20050;-77
2022/10/03 12:55:27;;;;;;;8.43;2.60;;;16.40;99.90;;;;;;5000979;28;20049;-77
2022/10/03 12:58:12;;;;;;;12.40;2.00;;;16.40;99.90;;;;;;4995380;28;20078;-77
2022/10/03 13:00:44;;;;;;;8.95;2.28;;;16.40;99.90;;;;;;5002183;28;20038;-77
2022/10/03 13:03:20;;;;;;;6.57;1.95;;;16.40;99.90;;;;;;4997045;28;20050;-77
2022/10/03 13:06:20;;;;;;;7.28;1.60;;;16.50;99.90;;;;;;5003834;28;20041;-76
2022/10/03 13:09:05;;;;;;;7.72;1.60;;;16.50;99.90;;;;;;5011231;28;20046;-77
2022/10/03 13:11:37;;;;;;;9.10;1.90;;;16.50;99.90;;;;;;5009138;28;20041;-77
2022/10/03 13:14:21;;;;;;;5.25;1.23;;;16.50;99.90;;;;;;5005606;28;20084;-77
2022/10/03 13:16:58;;;;;;;10.70;1.73;;;16.50;99.90;;;;;;5010340;28;20045;-77
2022/10/03 13:19:28;;;;;;;5.05;1.35;;;16.60;99.90;;;;;;4992813;28;20406;-76
2022/10/03 13:22:05;;;;;;;6.53;1.23;;;16.60;99.90;;;;;;4992913;28;20046;-77
2022/10/03 13:24:38;;;;;;;7.10;1.45;;;16.60;99.90;;;;;;5010072;28;20108;-77
2022/10/03 13:27:15;;;;;;;7.53;1.80;;;16.60;99.90;;;;;;5012107;28;20418;-76
2022/10/03 13:29:44;;;;;;;5.72;1.60;;;16.60;99.90;;;;;;5011867;28;20045;-77
2022/10/03 13:32:22;;;;;;;7.13;1.38;;;16.60;99.90;;;;;;4990868;28;20054;-76
2022/10/03 13:38:01;;;;;;;9.50;1.80;;;16.70;99.90;;;;;;4992230;28;20046;-77
2022/10/03 13:40:33;;;;;;;8.55;1.55;;;16.70;99.90;;;;;;5003093;28;20099;-77
2022/10/03 13:43:02;;;;;;;10.40;1.50;;;16.70;99.90;;;;;;5017993;28;20046;-78
2022/10/03 13:45:30;;;;;;;4.85;1.50;;;16.70;99.90;;;;;;5020504;28;20044;-77
2022/10/03 13:48:02;;;;;;;8.15;1.50;;;16.70;99.90;;;;;;5016597;28;20138;-77
2022/10/03 13:50:32;;;;;;;8.20;1.52;;;16.70;99.90;;;;;;5009839;28;20419;-77
2022/10/03 13:53:01;;;;;;;5.80;1.90;;;16.70;99.90;;;;;;5008406;28;20053;-77
2022/10/03 13:55:40;;;;;;;7.68;1.70;;;16.70;99.90;;;;;;5002330;28;20317;-77
2022/10/03 13:58:31;;;;;;;7.35;1.45;;;16.70;99.90;;;;;;5007761;28;20074;-78
2022/10/03 14:01:12;;;;;;;7.38;1.40;;;16.70;99.90;;;;;;4993107;28;20046;-77
2022/10/03 14:03:47;;;;;;;6.07;1.60;;;16.70;99.90;;;;;;4996507;28;20042;-78
2022/10/03 14:06:21;;;;;;;6.85;1.50;;;16.70;99.90;;;;;;4991763;28;20505;-78
2022/10/03 14:09:08;;;;;;;9.90;2.17;;;16.80;99.90;;;;;;4992234;28;20046;-78
2022/10/03 14:11:43;;;;;;;6.28;1.33;;;16.80;99.90;;;;;;5009226;28;20051;-78
2022/10/03 14:14:37;;;;;;;5.10;1.30;;;16.80;99.90;;;;;;5010224;28;20042;-78
2022/10/03 14:17:10;;;;;;;7.95;1.50;;;16.90;99.90;;;;;;5008902;28;20054;-77
2022/10/03 14:19:43;;;;;;;6.70;1.33;;;16.90;99.90;;;;;;5006171;28;20134;-78
2022/10/03 14:22:21;;;;;;;5.95;1.50;;;16.80;99.90;;;;;;5009604;28;20049;-78
2022/10/03 14:25:02;;;;;;;6.13;1.70;;;16.90;99.90;;;;;;5009325;28;20120;-78
2022/10/03 14:27:52;;;;;;;5.30;1.50;;;16.90;99.90;;;;;;5001664;28;20045;-78
2022/10/03 14:30:21;;;;;;;5.22;1.30;;;16.90;99.90;;;;;;5007497;28;20048;-77
2022/10/03 14:32:57;;;;;;;8.10;1.58;;;16.90;99.90;;;;;;5021496;28;20068;-77
2022/10/03 14:35:38;;;;;;;6.53;1.70;;;16.90;99.90;;;;;;5019347;28;20711;-78
2022/10/03 14:39:00;;;;;;;4.97;1.40;;;16.90;99.90;;;;;;5007508;28;20049;-77